createdAt,value
2022-07-25T00:00:26.492Z,101308.66
2022-07-25T00:02:53.378Z,101313.22
2022-07-25T00:05:21.249Z,101308.03
2022-07-25T00:07:48.734Z,101296.81
2022-07-25T00:10:16.408Z,101297.66
2022-07-25T00:12:43.462Z,101298.63
2022-07-25T00:15:11.298Z,101287.31
2022-07-25T00:17:38.636Z,101289.97
2022-07-25T00:20:06.705Z,101292.75
2022-07-25T00:22:33.765Z,101296.47
2022-07-25T00:25:00.859Z,101287.81
2022-07-25T00:27:27.766Z,101290.59
2022-07-25T00:29:54.729Z,101280.31
2022-07-25T00:32:21.639Z,101281.13
2022-07-25T00:34:48.575Z,101282.97
2022-07-25T00:37:15.573Z,101279.56
2022-07-25T00:39:42.510Z,101279.78
2022-07-25T00:42:09.440Z,101277.09
2022-07-25T00:44:36.370Z,101286.03
2022-07-25T00:47:03.291Z,101272.25
2022-07-25T00:49:30.229Z,101272.16
2022-07-25T00:51:57.934Z,101275.94
2022-07-25T00:54:25.243Z,101270.50
2022-07-25T00:56:52.675Z,101268.72
2022-07-25T00:59:19.633Z,101263.41
2022-07-25T01:01:48.480Z,101269.59
2022-07-25T01:04:16.201Z,101260.69
2022-07-25T01:06:43.279Z,101258.03
2022-07-25T01:09:10.531Z,101249.16
2022-07-25T01:11:38.861Z,101251.72
2022-07-25T01:14:06.128Z,101254.34
2022-07-25T01:16:33.801Z,101244.56
2022-07-25T01:19:00.744Z,101246.38
2022-07-25T01:21:28.078Z,101239.41
2022-07-25T01:23:55.021Z,101243.75
2022-07-25T01:26:22.084Z,101233.22
2022-07-25T01:28:49.098Z,101238.44
2022-07-25T01:31:16.126Z,101232.41
2022-07-25T01:33:43.112Z,101233.22
2022-07-25T01:36:10.199Z,101231.56
2022-07-25T01:38:37.188Z,101226.16
2022-07-25T01:41:04.136Z,101224.34
2022-07-25T01:43:31.240Z,101228.00
2022-07-25T01:45:58.256Z,101226.25
2022-07-25T01:48:25.369Z,101223.59
2022-07-25T01:50:52.441Z,101220.97
2022-07-25T01:53:19.389Z,101225.44
2022-07-25T01:55:47.376Z,101219.25
2022-07-25T01:58:14.336Z,101218.38
2022-07-25T02:00:41.701Z,101219.25
2022-07-25T02:03:27.439Z,101216.66
2022-07-25T02:05:54.999Z,101215.84
2022-07-25T02:08:23.329Z,101210.53
2022-07-25T02:10:50.323Z,101212.31
2022-07-25T02:13:17.317Z,101205.28
2022-07-25T02:15:44.236Z,101211.50
2022-07-25T02:18:11.237Z,101213.44
2022-07-25T02:20:38.284Z,101209.78
2022-07-25T02:23:05.996Z,101197.59
2022-07-25T02:25:33.791Z,101200.97
2022-07-25T02:28:01.025Z,101203.63
2022-07-25T02:30:28.354Z,101201.91
2022-07-25T02:32:55.318Z,101197.50
2022-07-25T02:35:22.328Z,101204.56
2022-07-25T02:37:49.268Z,101199.41
2022-07-25T02:40:16.190Z,101197.69
2022-07-25T02:42:43.102Z,101196.78
2022-07-25T02:45:10.315Z,101198.53
2022-07-25T02:47:37.206Z,101196.81
2022-07-25T02:50:04.943Z,101190.72
2022-07-25T02:52:31.875Z,101195.16
2022-07-25T02:54:58.838Z,101198.75
2022-07-25T02:57:25.733Z,101204.06
2022-07-25T02:59:52.681Z,101195.28
2022-07-25T03:02:19.615Z,101198.84
2022-07-25T03:04:46.534Z,101197.97
2022-07-25T03:07:13.503Z,101195.34
2022-07-25T03:09:40.445Z,101194.47
2022-07-25T03:12:07.356Z,101192.75
2022-07-25T03:14:34.839Z,101183.00
2022-07-25T03:17:01.847Z,101187.44
2022-07-25T03:19:28.906Z,101182.06
2022-07-25T03:21:55.857Z,101177.59
2022-07-25T03:24:22.885Z,101185.56
2022-07-25T03:26:50.022Z,101175.84
2022-07-25T03:29:17.057Z,101173.28
2022-07-25T03:31:44.525Z,101177.50
2022-07-25T03:34:11.530Z,101171.22
2022-07-25T03:36:38.428Z,101179.09
2022-07-25T03:39:06.422Z,101176.44
2022-07-25T03:41:33.713Z,101174.63
2022-07-25T03:44:00.655Z,101176.34
2022-07-25T03:46:27.585Z,101169.28
2022-07-25T03:48:55.603Z,101161.31
2022-07-25T03:51:22.699Z,101160.31
2022-07-25T03:54:05.591Z,101157.66
2022-07-25T03:56:43.415Z,101150.56
2022-07-25T03:59:14.821Z,101148.75
2022-07-25T04:01:43.546Z,101152.22
2022-07-25T04:04:10.931Z,101145.13
2022-07-25T04:06:39.068Z,101144.13
2022-07-25T04:09:08.623Z,101138.63
2022-07-25T04:11:35.990Z,101139.06
2022-07-25T04:14:03.432Z,101140.88
2022-07-25T04:16:30.783Z,101131.06
2022-07-25T04:18:57.761Z,101125.41
2022-07-25T04:21:25.545Z,101122.09
2022-07-25T04:23:52.893Z,101117.13
2022-07-25T04:26:20.066Z,101121.25
2022-07-25T04:28:47.039Z,101116.50
2022-07-25T04:31:14.187Z,101110.66
2022-07-25T04:33:42.233Z,101105.50
2022-07-25T04:36:09.243Z,101101.03
2022-07-25T04:38:36.379Z,101104.84
2022-07-25T04:41:04.534Z,101095.53
2022-07-25T04:43:31.484Z,101095.13
2022-07-25T04:45:58.480Z,101099.13
2022-07-25T04:48:25.602Z,101090.72
2022-07-25T04:50:52.649Z,101089.94
2022-07-25T04:53:19.716Z,101084.81
2022-07-25T04:55:46.785Z,101080.50
2022-07-25T04:58:13.799Z,101079.72
2022-07-25T05:00:41.746Z,101075.28
2022-07-25T05:03:08.692Z,101069.16
2022-07-25T05:05:35.615Z,101061.16
2022-07-25T05:08:02.526Z,101063.88
2022-07-25T05:10:30.394Z,101064.81
2022-07-25T05:12:57.331Z,101050.59
2022-07-25T05:15:24.765Z,101055.84
2022-07-25T05:17:51.797Z,101053.03
2022-07-25T05:20:19.037Z,101046.75
2022-07-25T05:22:45.959Z,101044.97
2022-07-25T05:25:13.158Z,101043.00
2022-07-25T05:27:40.752Z,101047.31
2022-07-25T05:30:10.323Z,101041.81
2022-07-25T05:32:38.271Z,101040.78
2022-07-25T05:35:08.036Z,101031.78
2022-07-25T05:37:36.497Z,101034.22
2022-07-25T05:40:05.971Z,101024.34
2022-07-25T05:42:32.876Z,101022.25
2022-07-25T05:45:00.189Z,101016.81
2022-07-25T05:47:27.118Z,101018.16
2022-07-25T05:49:54.329Z,101015.22
2022-07-25T05:52:21.296Z,101006.94
2022-07-25T05:54:48.233Z,100999.59
2022-07-25T05:57:15.123Z,101000.22
2022-07-25T05:59:42.066Z,100990.22
2022-07-25T06:02:09.037Z,100991.59
2022-07-25T06:04:36.033Z,100983.47
2022-07-25T06:07:02.929Z,100972.63
2022-07-25T06:09:31.869Z,100974.44
2022-07-25T06:12:01.136Z,100968.75
2022-07-25T06:14:29.526Z,100967.47
2022-07-25T06:16:57.181Z,100974.13
2022-07-25T06:19:24.211Z,100964.78
2022-07-25T06:21:51.197Z,100952.97
2022-07-25T06:24:18.196Z,100959.38
2022-07-25T06:26:45.094Z,100962.38
2022-07-25T06:29:12.270Z,100953.78
2022-07-25T06:31:39.303Z,100944.28
2022-07-25T06:34:06.807Z,100943.72
2022-07-25T06:36:34.144Z,100928.47
2022-07-25T06:39:01.611Z,100927.56
2022-07-25T06:41:28.523Z,100927.88
2022-07-25T06:43:55.457Z,100920.16
2022-07-25T06:46:22.409Z,100911.59
2022-07-25T06:48:49.462Z,100913.59
2022-07-25T06:51:16.407Z,100915.59
2022-07-25T06:53:43.751Z,100904.44
2022-07-25T06:56:15.765Z,100912.72
2022-07-25T06:58:44.796Z,100896.97
2022-07-25T07:01:11.824Z,100899.81
2022-07-25T07:03:40.238Z,100894.91
2022-07-25T07:06:09.432Z,100892.44
2022-07-25T07:08:37.764Z,100896.31
2022-07-25T07:11:06.516Z,100888.53
2022-07-25T07:13:34.114Z,100891.56
2022-07-25T07:16:01.497Z,100883.88
2022-07-25T07:18:28.657Z,100883.06
2022-07-25T07:20:55.560Z,100880.53
2022-07-25T07:23:22.488Z,100872.72
2022-07-25T07:25:51.685Z,100868.44
2022-07-25T07:28:18.775Z,100860.63
2022-07-25T07:31:15.038Z,100858.91
2022-07-25T07:33:33.530Z,100860.94
2022-07-25T07:36:01.710Z,100855.81
2022-07-25T07:38:28.696Z,100856.00
2022-07-25T07:40:55.609Z,100856.44
2022-07-25T07:43:27.648Z,100853.97
2022-07-25T07:46:01.525Z,100840.84
2022-07-25T07:48:30.385Z,100843.81
2022-07-25T07:50:58.116Z,100832.53
2022-07-25T07:53:44.080Z,100827.44
2022-07-25T07:56:12.072Z,100823.09
2022-07-25T07:58:39.144Z,100823.28
2022-07-25T08:01:06.498Z,100802.53
2022-07-25T08:03:33.631Z,100808.47
2022-07-25T08:06:00.643Z,100813.91
2022-07-25T08:08:31.079Z,100803.56
2022-07-25T08:10:59.322Z,100799.94
2022-07-25T08:13:30.710Z,100794.69
2022-07-25T08:15:59.616Z,100798.47
2022-07-25T08:18:29.863Z,100802.03
2022-07-25T08:20:57.173Z,100790.72
2022-07-25T08:23:25.673Z,100784.84
2022-07-25T08:25:52.683Z,100782.28
2022-07-25T08:28:20.861Z,100785.66
2022-07-25T08:30:47.870Z,100779.44
2022-07-25T08:33:18.027Z,100776.91
2022-07-25T08:35:54.529Z,100786.88
2022-07-25T08:38:24.094Z,100783.44
2022-07-25T08:40:51.789Z,100781.81
2022-07-25T08:43:19.700Z,100781.06
2022-07-25T08:45:53.570Z,100771.50
2022-07-25T08:48:26.407Z,100761.97
2022-07-25T08:50:54.857Z,100764.47
2022-07-25T08:53:37.923Z,100763.53
2022-07-25T08:56:12.555Z,100751.13
2022-07-25T08:58:44.111Z,100758.16
2022-07-25T09:01:12.975Z,100756.88
2022-07-25T09:03:42.360Z,100758.50
2022-07-25T09:06:22.470Z,100751.88
2022-07-25T09:08:59.457Z,100755.22
2022-07-25T09:11:35.989Z,100743.22
2022-07-25T09:14:08.925Z,100754.59
2022-07-25T09:16:44.456Z,100733.78
2022-07-25T09:19:21.221Z,100741.63
2022-07-25T09:22:10.266Z,100727.13
2022-07-25T09:24:44.791Z,100732.97
2022-07-25T09:27:12.794Z,100729.84
2022-07-25T09:29:42.525Z,100723.47
2022-07-25T09:32:20.669Z,100716.34
2022-07-25T09:34:49.929Z,100718.75
2022-07-25T09:37:19.551Z,100721.19
2022-07-25T09:39:49.840Z,100707.41
2022-07-25T09:42:25.566Z,100700.03
2022-07-25T09:45:11.294Z,100694.03
2022-07-25T09:47:50.564Z,100691.34
2022-07-25T09:50:18.972Z,100693.75
2022-07-25T09:52:46.732Z,100693.72
2022-07-25T09:55:16.805Z,100688.16
2022-07-25T09:57:45.106Z,100683.59
2022-07-25T10:00:18.984Z,100678.31
2022-07-25T10:02:55.571Z,100664.91
2022-07-25T10:05:59.663Z,100665.00
2022-07-25T10:08:27.326Z,100669.91
2022-07-25T10:10:54.321Z,100658.91
2022-07-25T10:13:35.121Z,100663.13
2022-07-25T10:16:03.021Z,100652.41
2022-07-25T10:18:30.958Z,100657.03
2022-07-25T10:21:25.449Z,100651.47
2022-07-25T10:24:06.414Z,100650.63
2022-07-25T10:26:39.349Z,100651.31
2022-07-25T10:29:11.949Z,100640.88
2022-07-25T10:31:49.941Z,100628.28
2022-07-25T10:34:30.955Z,100612.16
2022-07-25T10:37:14.327Z,100613.59
2022-07-25T10:39:48.083Z,100611.66
2022-07-25T10:42:17.872Z,100609.16
2022-07-25T10:45:09.416Z,100605.25
2022-07-25T10:47:42.401Z,100599.38
2022-07-25T10:50:25.618Z,100589.09
2022-07-25T10:53:00.574Z,100590.19
2022-07-25T10:55:29.370Z,100589.53
2022-07-25T10:58:21.653Z,100599.22
2022-07-25T11:00:48.671Z,100590.06
2022-07-25T11:03:18.440Z,100586.50
2022-07-25T11:05:47.387Z,100581.94
2022-07-25T11:08:22.648Z,100578.03
2022-07-25T11:10:53.375Z,100576.88
2022-07-25T11:13:20.681Z,100573.69
2022-07-25T11:15:48.176Z,100566.47
2022-07-25T11:18:15.139Z,100562.25
2022-07-25T11:20:42.078Z,100568.72
2022-07-25T11:23:09.030Z,100552.84
2022-07-25T11:25:35.994Z,100565.06
2022-07-25T11:28:03.852Z,100557.09
2022-07-25T11:30:31.137Z,100554.03
2022-07-25T11:33:01.530Z,100544.22
2022-07-25T11:35:31.573Z,100534.22
2022-07-25T11:38:02.499Z,100538.94
2022-07-25T11:40:30.843Z,100530.13
2022-07-25T11:42:59.665Z,100536.41
2022-07-25T11:45:31.007Z,100526.56
2022-07-25T11:48:08.199Z,100516.75
2022-07-25T11:50:39.665Z,100514.03
2022-07-25T11:53:10.097Z,100505.72
2022-07-25T11:55:42.449Z,100504.72
2022-07-25T11:58:12.834Z,100501.34
2022-07-25T12:00:47.671Z,100496.94
2022-07-25T12:03:21.095Z,100497.94
2022-07-25T12:05:50.054Z,100500.41
2022-07-25T12:08:19.963Z,100503.63
2022-07-25T12:10:49.157Z,100486.00
2022-07-25T12:13:25.689Z,100486.97
2022-07-25T12:15:53.666Z,100494.44
2022-07-25T12:18:20.581Z,100483.22
2022-07-25T12:20:47.489Z,100488.13
2022-07-25T12:23:14.770Z,100486.44
2022-07-25T12:25:45.891Z,100487.44
2022-07-25T12:28:13.575Z,100484.56
2022-07-25T12:30:42.413Z,100481.03
2022-07-25T12:33:10.433Z,100472.59
2022-07-25T12:35:37.763Z,100459.75
2022-07-25T12:38:05.144Z,100451.69
2022-07-25T12:40:32.313Z,100464.28
2022-07-25T12:42:59.839Z,100453.25
2022-07-25T12:45:27.865Z,100448.91
2022-07-25T12:47:55.034Z,100438.53
2022-07-25T12:50:25.586Z,100443.94
2022-07-25T12:52:52.534Z,100437.19
2022-07-25T12:55:20.894Z,100435.13
2022-07-25T12:57:49.461Z,100429.88
2022-07-25T13:00:20.370Z,100431.72
2022-07-25T13:02:48.842Z,100420.88
2022-07-25T13:05:15.873Z,100423.25
2022-07-25T13:07:42.808Z,100423.72
2022-07-25T13:10:10.416Z,100416.25
2022-07-25T13:12:37.323Z,100413.72
2022-07-25T13:15:05.128Z,100412.88
2022-07-25T13:17:32.406Z,100419.50
2022-07-25T13:19:59.907Z,100406.44
2022-07-25T13:22:26.920Z,100408.47
2022-07-25T13:24:54.507Z,100405.06
2022-07-25T13:27:22.918Z,100407.16
2022-07-25T13:29:56.296Z,100405.44
2022-07-25T13:32:23.883Z,100395.59
2022-07-25T13:34:51.049Z,100392.91
2022-07-25T13:37:18.108Z,100390.69
2022-07-25T13:39:45.055Z,100387.47
2022-07-25T13:42:11.968Z,100382.38
2022-07-25T13:44:38.905Z,100377.97
2022-07-25T13:47:06.172Z,100376.25
2022-07-25T13:49:33.217Z,100370.97
2022-07-25T13:52:00.140Z,100375.41
2022-07-25T13:54:27.108Z,100366.09
2022-07-25T13:56:54.027Z,100359.81
2022-07-25T13:59:21.898Z,100354.88
2022-07-25T14:01:50.519Z,100356.41
2022-07-25T14:04:17.882Z,100362.50
2022-07-25T14:06:45.057Z,100355.88
2022-07-25T14:09:12.086Z,100345.50
2022-07-25T14:11:39.134Z,100353.50
2022-07-25T14:14:06.084Z,100351.63
2022-07-25T14:16:34.114Z,100344.66
2022-07-25T14:19:02.226Z,100348.22
2022-07-25T14:21:30.549Z,100341.78
2022-07-25T14:23:57.471Z,100337.19
2022-07-25T14:26:24.411Z,100336.84
2022-07-25T14:28:51.366Z,100337.69
2022-07-25T14:31:18.359Z,100334.59
2022-07-25T14:33:45.330Z,100325.81
2022-07-25T14:36:12.787Z,100330.56
2022-07-25T14:38:39.752Z,100324.63
2022-07-25T14:41:12.521Z,100313.28
2022-07-25T14:43:41.466Z,100324.00
2022-07-25T14:46:09.032Z,100311.47
2022-07-25T14:48:37.592Z,100312.13
2022-07-25T14:51:05.616Z,100298.78
2022-07-25T14:53:33.750Z,100289.81
2022-07-25T14:56:02.314Z,100281.53
2022-07-25T14:58:29.250Z,100272.91
2022-07-25T15:00:56.242Z,100264.94
2022-07-25T15:03:23.308Z,100269.66
2022-07-25T15:05:50.231Z,100263.56
2022-07-25T15:08:17.178Z,100259.50
2022-07-25T15:10:44.096Z,100265.28
2022-07-25T15:13:30.336Z,100262.03
2022-07-25T15:15:58.254Z,100258.69
2022-07-25T15:18:25.271Z,100262.41
2022-07-25T15:20:52.256Z,100259.38
2022-07-25T15:23:21.084Z,100249.03
2022-07-25T15:26:04.773Z,100245.69
2022-07-25T15:28:37.492Z,100246.50
2022-07-25T15:31:06.211Z,100241.59
2022-07-25T15:33:33.484Z,100233.28
2022-07-25T15:36:00.473Z,100219.38
2022-07-25T15:38:28.870Z,100221.59
2022-07-25T15:40:55.879Z,100223.78
2022-07-25T15:43:23.261Z,100218.22
2022-07-25T15:45:50.572Z,100230.25
2022-07-25T15:48:18.334Z,100217.00
2022-07-25T15:50:48.713Z,100218.53
2022-07-25T15:53:15.947Z,100286.91
2022-07-25T15:55:43.310Z,100316.16
2022-07-25T15:58:11.500Z,100360.41
2022-07-25T16:00:39.979Z,100384.31
2022-07-25T16:03:07.199Z,100371.63
2022-07-25T16:05:35.171Z,100379.16
2022-07-25T16:08:03.353Z,100354.25
2022-07-25T16:10:32.112Z,100333.84
2022-07-25T16:12:59.343Z,100375.59
2022-07-25T16:15:26.505Z,100327.22
2022-07-25T16:18:00.114Z,100252.22
2022-07-25T16:20:31.502Z,100247.59
2022-07-25T16:22:59.299Z,100243.00
2022-07-25T16:25:29.226Z,100234.63
2022-07-25T16:27:56.740Z,100238.84
2022-07-25T16:30:23.867Z,100234.75
2022-07-25T16:32:50.786Z,100242.22
2022-07-25T16:35:17.761Z,100232.59
2022-07-25T16:37:44.819Z,100237.97
2022-07-25T16:40:12.452Z,100241.50
2022-07-25T16:42:39.651Z,100252.13
2022-07-25T16:45:07.459Z,100269.09
2022-07-25T16:47:36.983Z,100289.88
2022-07-25T16:50:04.345Z,100287.75
2022-07-25T16:52:31.243Z,100301.13
2022-07-25T16:54:58.173Z,100288.59
2022-07-25T16:57:25.402Z,100280.75
2022-07-25T16:59:53.404Z,100278.97
2022-07-25T17:02:23.878Z,100277.94
2022-07-25T17:04:54.823Z,100269.81
2022-07-25T17:07:21.811Z,100273.22
2022-07-25T17:09:48.732Z,100273.03
2022-07-25T17:12:17.323Z,100274.66
2022-07-25T17:14:45.001Z,100261.50
2022-07-25T17:17:12.010Z,100260.16
2022-07-25T17:19:41.455Z,100250.44
2022-07-25T17:22:09.883Z,100256.22
2022-07-25T17:24:37.215Z,100257.44
2022-07-25T17:27:04.253Z,100236.84
2022-07-25T17:29:31.280Z,100243.78
2022-07-25T17:31:58.315Z,100240.50
2022-07-25T17:34:26.842Z,100234.53
2022-07-25T17:36:54.936Z,100233.81
2022-07-25T17:39:22.065Z,100225.88
2022-07-25T17:41:49.093Z,100225.19
2022-07-25T17:44:16.462Z,100223.59
2022-07-25T17:46:44.124Z,100229.09
2022-07-25T17:49:11.234Z,100223.09
2022-07-25T17:51:38.220Z,100216.03
2022-07-25T17:54:05.882Z,100219.56
2022-07-25T17:56:33.620Z,100218.72
2022-07-25T17:59:00.570Z,100213.47
2022-07-25T18:01:27.522Z,100211.66
2022-07-25T18:03:54.471Z,100213.63
2022-07-25T18:06:24.068Z,100211.31
2022-07-25T18:08:54.723Z,100210.72
2022-07-25T18:11:21.645Z,100218.63
2022-07-25T18:13:48.594Z,100212.66
2022-07-25T18:16:15.700Z,100206.00
2022-07-25T18:18:42.735Z,100220.47
2022-07-25T18:21:09.667Z,100237.66
2022-07-25T18:23:36.639Z,100253.38
2022-07-25T18:26:04.417Z,100284.31
2022-07-25T18:28:31.387Z,100381.50
2022-07-25T18:30:58.375Z,100374.66
2022-07-25T18:33:25.591Z,100359.03
2022-07-25T18:35:52.572Z,100382.25
2022-07-25T18:38:19.558Z,100389.22
2022-07-25T18:40:46.500Z,100371.09
2022-07-25T18:43:13.674Z,100357.25
2022-07-25T18:45:40.808Z,100369.25
2022-07-25T18:48:08.328Z,100403.69
2022-07-25T18:50:35.262Z,100435.25
2022-07-25T18:53:02.185Z,100469.75
2022-07-25T18:55:29.207Z,100522.66
2022-07-25T18:57:56.120Z,100565.78
2022-07-25T19:00:23.058Z,100577.00
2022-07-25T19:02:50.546Z,100551.63
2022-07-25T19:05:17.507Z,100512.56
2022-07-25T19:07:44.566Z,100514.63
2022-07-25T19:10:11.737Z,100532.28
2022-07-25T19:12:40.081Z,100541.72
2022-07-25T19:15:07.804Z,100538.84
2022-07-25T19:17:35.867Z,100501.66
2022-07-25T19:20:02.824Z,100483.94
2022-07-25T19:22:29.738Z,100469.50
2022-07-25T19:24:56.679Z,100530.03
2022-07-25T19:27:25.799Z,100543.41
2022-07-25T19:29:52.742Z,100542.72
2022-07-25T19:32:19.642Z,100549.84
2022-07-25T19:34:46.563Z,100529.41
2022-07-25T19:37:13.461Z,100525.22
2022-07-25T19:39:40.405Z,100553.72
2022-07-25T19:42:09.724Z,100568.72
2022-07-25T19:44:37.183Z,100575.06
2022-07-25T19:47:07.252Z,100589.94
2022-07-25T19:49:36.732Z,100601.38
2022-07-25T19:52:03.818Z,100591.50
2022-07-25T19:54:30.710Z,100586.19
2022-07-25T19:56:57.931Z,100580.75
2022-07-25T19:59:24.830Z,100574.66
2022-07-25T20:01:52.288Z,100573.53
2022-07-25T20:04:19.448Z,100571.81
2022-07-25T20:06:46.471Z,100576.44
2022-07-25T20:09:14.094Z,100570.81
2022-07-25T20:11:41.365Z,100569.09
2022-07-25T20:14:09.406Z,100554.69
2022-07-25T20:16:37.905Z,100545.69
2022-07-25T20:19:08.183Z,100545.28
2022-07-25T20:21:39.716Z,100539.88
2022-07-25T20:24:07.194Z,100537.16
2022-07-25T20:26:34.428Z,100533.78
2022-07-25T20:29:01.569Z,100547.94
2022-07-25T20:31:28.574Z,100550.53
2022-07-25T20:33:55.538Z,100552.34
2022-07-25T20:36:22.443Z,100560.31
2022-07-25T20:38:49.517Z,100563.13
2022-07-25T20:41:16.519Z,100566.78
2022-07-25T20:43:43.490Z,100579.22
2022-07-25T20:46:10.435Z,100584.66
2022-07-25T20:48:37.529Z,100592.63
2022-07-25T20:51:04.647Z,100596.38
2022-07-25T20:53:31.604Z,100607.97
2022-07-25T20:55:59.219Z,100594.81
2022-07-25T20:58:26.140Z,100593.16
2022-07-25T21:00:53.150Z,100603.13
2022-07-25T21:03:20.097Z,100614.78
2022-07-25T21:05:47.005Z,100630.00
2022-07-25T21:08:15.221Z,100644.41
2022-07-25T21:10:42.364Z,100665.72
2022-07-25T21:13:09.388Z,100681.84
2022-07-25T21:15:36.307Z,100696.13
2022-07-25T21:18:03.277Z,100690.81
2022-07-25T21:20:30.263Z,100685.56
2022-07-25T21:22:57.185Z,100667.91
2022-07-25T21:25:24.162Z,100640.63
2022-07-25T21:27:51.128Z,100649.75
2022-07-25T21:30:18.100Z,100642.78
2022-07-25T21:32:45.100Z,100656.91
2022-07-25T21:35:12.254Z,100657.88
2022-07-25T21:37:39.945Z,100650.91
2022-07-25T21:40:07.947Z,100645.66
2022-07-25T21:42:36.266Z,100648.47
2022-07-25T21:45:03.793Z,100656.66
2022-07-25T21:47:30.732Z,100679.94
2022-07-25T21:50:19.185Z,100726.41
2022-07-25T21:52:52.630Z,100722.19
2022-07-25T21:55:21.316Z,100693.19
2022-07-25T21:57:48.890Z,100669.38
2022-07-25T22:00:16.435Z,100669.44
2022-07-25T22:02:46.053Z,100669.38
2022-07-25T22:05:14.526Z,100679.13
2022-07-25T22:07:42.680Z,100680.84
2022-07-25T22:10:11.831Z,100671.94
2022-07-25T22:12:39.891Z,100672.88
2022-07-25T22:15:11.961Z,100643.72
2022-07-25T22:17:48.395Z,100647.28
2022-07-25T22:20:18.413Z,100650.84
2022-07-25T22:22:47.101Z,100638.72
2022-07-25T22:25:14.207Z,100637.78
2022-07-25T22:27:41.102Z,100631.63
2022-07-25T22:30:10.556Z,100624.50
2022-07-25T22:32:40.311Z,100614.75
2022-07-25T22:35:07.777Z,100624.50
2022-07-25T22:37:34.677Z,100622.78
2022-07-25T22:40:01.839Z,100620.13
2022-07-25T22:42:28.785Z,100634.28
2022-07-25T22:44:55.718Z,100638.78
2022-07-25T22:47:22.617Z,100640.59
2022-07-25T22:49:49.760Z,100637.94
2022-07-25T22:52:16.653Z,100625.66
2022-07-25T22:54:43.749Z,100643.34
2022-07-25T22:57:10.654Z,100658.38
2022-07-25T22:59:37.574Z,100656.72
2022-07-25T23:02:04.985Z,100657.75
2022-07-25T23:04:31.995Z,100670.09
2022-07-25T23:06:58.940Z,100668.41
2022-07-25T23:09:25.919Z,100666.97
2022-07-25T23:12:05.276Z,100682.69
2022-07-25T23:14:32.278Z,100685.47
2022-07-25T23:17:31.608Z,100688.22
2022-07-25T23:19:58.680Z,100679.53
2022-07-25T23:22:28.157Z,100687.56
2022-07-25T23:24:56.419Z,100675.22
2022-07-25T23:27:23.950Z,100684.13
2022-07-25T23:29:50.971Z,100690.38
2022-07-25T23:32:18.091Z,100701.84
2022-07-25T23:34:45.189Z,100694.94
2022-07-25T23:37:12.096Z,100697.53
2022-07-25T23:39:39.017Z,100694.09
2022-07-25T23:42:05.942Z,100688.84
2022-07-25T23:44:32.873Z,100687.13
2022-07-25T23:47:01.419Z,100689.84
2022-07-25T23:49:28.548Z,100693.44
2022-07-25T23:51:57.136Z,100692.59
2022-07-25T23:54:24.755Z,100700.59
2022-07-25T23:56:52.320Z,100685.53
2022-07-25T23:59:19.705Z,100686.47
